Time;durP1;ratioP1;P1;durP2;ratioP2;P2;SDS_P1;SDS_P2;PMS_P1;PMS_P2;Temp;Humidity;BMP_temperature;BMP_pressure;BME280_temperature;BME280_humidity;BME280_pressure;Samples;Min_cycle;Max_cycle;Signal;HPM_P1;HPM_P2
2021/10/08 00:01:56;;;;;;;2.17;1.05;;;12.50;99.90;;;;;;5029412;28;20033;-69
2021/10/08 00:04:22;;;;;;;0.25;0.25;;;12.40;99.90;;;;;;5024239;28;20030;-70
2021/10/08 00:06:48;;;;;;;0.20;0.20;;;12.40;99.90;;;;;;5029523;28;20037;-69
2021/10/08 00:09:14;;;;;;;0.40;0.40;;;12.30;99.90;;;;;;5036817;28;20025;-70
2021/10/08 00:11:40;;;;;;;0.22;0.22;;;12.30;99.90;;;;;;5029354;28;20029;-69
2021/10/08 00:14:05;;;;;;;0.38;0.38;;;12.30;99.90;;;;;;5030195;28;20032;-70
2021/10/08 00:16:31;;;;;;;0.80;0.75;;;12.20;99.90;;;;;;5031993;28;20024;-69
2021/10/08 00:18:56;;;;;;;0.80;0.80;;;12.20;99.90;;;;;;5027762;28;20745;-69
2021/10/08 00:21:22;;;;;;;0.65;0.38;;;12.10;99.90;;;;;;5030733;28;20056;-69
2021/10/08 00:23:48;;;;;;;0.75;0.65;;;12.10;99.90;;;;;;5029405;28;20124;-70
2021/10/08 00:26:13;;;;;;;1.02;0.95;;;12.10;99.90;;;;;;5029333;28;20056;-69
2021/10/08 00:28:39;;;;;;;0.80;0.80;;;12.00;99.90;;;;;;5025369;28;20030;-69
2021/10/08 00:31:04;;;;;;;0.60;0.60;;;12.00;99.90;;;;;;5027661;28;20032;-69
2021/10/08 00:33:30;;;;;;;1.75;0.88;;;12.00;99.90;;;;;;5030289;28;20558;-69
2021/10/08 00:35:55;;;;;;;0.38;0.30;;;12.00;99.90;;;;;;5035622;28;20135;-69
2021/10/08 00:38:21;;;;;;;1.13;0.73;;;11.90;99.90;;;;;;5032430;28;20044;-69
2021/10/08 00:40:47;;;;;;;0.38;0.38;;;11.90;99.90;;;;;;5037394;28;20381;-69
2021/10/08 00:43:23;;;;;;;1.13;0.85;;;11.80;99.90;;;;;;5026651;28;20034;-70
2021/10/08 00:45:49;;;;;;;0.50;0.50;;;11.80;99.90;;;;;;5027199;28;20128;-69
2021/10/08 00:48:16;;;;;;;7.68;0.70;;;11.70;99.90;;;;;;5030100;28;20517;-69
2021/10/08 00:50:48;;;;;;;0.85;0.85;;;11.80;99.90;;;;;;5025743;28;20029;-69
2021/10/08 00:53:14;;;;;;;1.35;0.73;;;11.70;99.90;;;;;;5032474;28;20029;-70
2021/10/08 00:55:47;;;;;;;1.75;0.93;;;11.70;99.90;;;;;;5026068;28;20028;-70
2021/10/08 00:58:15;;;;;;;3.33;1.35;;;11.60;99.90;;;;;;5022571;28;20454;-69
2021/10/08 01:00:43;;;;;;;1.65;1.45;;;11.60;99.90;;;;;;5027902;28;20026;-69
2021/10/08 01:03:09;;;;;;;0.80;0.47;;;11.60;99.90;;;;;;5032210;28;20063;-69
2021/10/08 01:05:35;;;;;;;0.35;0.35;;;11.50;99.90;;;;;;5024882;28;20044;-69
2021/10/08 01:08:01;;;;;;;0.70;0.70;;;11.60;99.90;;;;;;5028161;28;20052;-69
2021/10/08 01:10:26;;;;;;;1.15;0.90;;;11.60;99.90;;;;;;5030756;28;20724;-69
2021/10/08 01:12:52;;;;;;;1.08;0.75;;;11.50;99.90;;;;;;5025580;28;20439;-69
2021/10/08 01:15:17;;;;;;;0.73;0.47;;;11.50;99.90;;;;;;5028650;28;20031;-69
2021/10/08 01:17:43;;;;;;;0.88;0.47;;;11.50;99.90;;;;;;5026791;28;20120;-69
2021/10/08 01:20:10;;;;;;;0.73;0.73;;;11.40;99.90;;;;;;5026087;28;20049;-69
2021/10/08 01:22:36;;;;;;;1.02;0.25;;;11.40;99.90;;;;;;5030007;28;20052;-69
2021/10/08 01:25:03;;;;;;;1.60;1.08;;;11.40;99.90;;;;;;5033623;28;20484;-69
2021/10/08 01:27:28;;;;;;;0.65;0.65;;;11.40;99.90;;;;;;5030578;28;20484;-69
2021/10/08 01:29:57;;;;;;;1.15;0.75;;;11.40;99.90;;;;;;5031148;28;20025;-69
2021/10/08 01:32:25;;;;;;;0.25;0.25;;;11.30;99.90;;;;;;5026234;28;20443;-69
2021/10/08 01:34:50;;;;;;;0.73;0.50;;;11.30;99.90;;;;;;5027154;28;20037;-69
2021/10/08 01:37:17;;;;;;;0.60;0.60;;;11.30;99.90;;;;;;5024213;28;20072;-69
2021/10/08 01:39:44;;;;;;;6.57;2.00;;;11.30;99.90;;;;;;5024862;28;20661;-70
2021/10/08 01:42:09;;;;;;;2.40;0.85;;;11.30;99.90;;;;;;5022610;28;20026;-69
2021/10/08 01:44:35;;;;;;;1.08;0.85;;;11.20;99.90;;;;;;5026818;28;20533;-69
2021/10/08 01:47:00;;;;;;;0.43;0.43;;;11.20;99.90;;;;;;5032604;28;20028;-69
2021/10/08 01:49:26;;;;;;;0.95;0.95;;;11.20;99.90;;;;;;5024124;28;20673;-69
2021/10/08 01:51:52;;;;;;;0.70;0.43;;;11.20;99.90;;;;;;5023459;28;20086;-69
2021/10/08 01:54:17;;;;;;;1.08;0.57;;;11.20;99.90;;;;;;5025509;28;20039;-69
2021/10/08 01:56:46;;;;;;;0.90;0.85;;;11.20;99.90;;;;;;5024141;28;20051;-69
2021/10/08 01:59:14;;;;;;;0.60;0.60;;;11.10;99.90;;;;;;5029803;28;20063;-69
2021/10/08 02:01:40;;;;;;;1.13;1.00;;;11.10;99.90;;;;;;5028690;28;20060;-69
2021/10/08 02:04:06;;;;;;;0.68;0.68;;;11.00;99.90;;;;;;5029810;28;20373;-70
2021/10/08 02:06:31;;;;;;;1.02;0.90;;;11.00;99.90;;;;;;5030465;28;20031;-70
2021/10/08 02:08:57;;;;;;;2.67;2.15;;;11.00;99.90;;;;;;5028417;28;20270;-69
2021/10/08 02:11:23;;;;;;;1.30;0.77;;;11.00;99.90;;;;;;5027889;28;20022;-69
2021/10/08 02:13:48;;;;;;;1.05;0.77;;;11.00;99.90;;;;;;5029573;28;20037;-69
2021/10/08 02:16:14;;;;;;;1.42;1.33;;;10.90;99.90;;;;;;5035124;28;20025;-69
2021/10/08 02:18:39;;;;;;;3.53;0.98;;;10.90;99.90;;;;;;5034491;28;20030;-69
2021/10/08 02:21:05;;;;;;;0.85;0.77;;;10.90;99.90;;;;;;5029459;28;20132;-69
2021/10/08 02:23:31;;;;;;;0.93;0.73;;;10.80;99.90;;;;;;5029327;28;20037;-68
2021/10/08 02:25:57;;;;;;;1.98;1.13;;;10.80;99.90;;;;;;5037889;28;20029;-70
2021/10/08 02:28:23;;;;;;;0.77;0.63;;;10.80;99.90;;;;;;5027355;28;20609;-69
2021/10/08 02:30:48;;;;;;;0.52;0.52;;;10.80;99.90;;;;;;5032981;28;20025;-69
2021/10/08 02:33:14;;;;;;;2.35;1.13;;;10.80;99.90;;;;;;5027987;28;20022;-69
2021/10/08 02:35:39;;;;;;;1.23;1.13;;;10.80;99.90;;;;;;5029297;28;20075;-69
2021/10/08 02:38:05;;;;;;;1.23;1.23;;;10.80;99.90;;;;;;5035461;28;20048;-69
2021/10/08 02:40:31;;;;;;;2.45;0.73;;;10.80;99.90;;;;;;5027930;28;20059;-69
2021/10/08 02:42:56;;;;;;;0.08;0.08;;;10.80;99.90;;;;;;5031426;28;20562;-69
2021/10/08 02:45:22;;;;;;;0.70;0.70;;;10.90;99.90;;;;;;5031385;28;20403;-69
2021/10/08 02:47:47;;;;;;;0.57;0.57;;;10.90;99.90;;;;;;5027693;28;20028;-68
2021/10/08 02:50:13;;;;;;;0.40;0.40;;;11.00;99.90;;;;;;5031910;28;20044;-69
2021/10/08 02:52:39;;;;;;;1.05;0.95;;;11.00;99.90;;;;;;5032255;28;20336;-69
2021/10/08 02:55:06;;;;;;;0.10;0.10;;;11.10;99.90;;;;;;5037851;28;20025;-69
2021/10/08 02:57:32;;;;;;;0.85;0.75;;;11.20;99.90;;;;;;5032522;28;20021;-69
2021/10/08 02:59:57;;;;;;;0.38;0.38;;;11.20;99.90;;;;;;5031580;28;20035;-69
2021/10/08 03:02:23;;;;;;;1.52;0.95;;;11.30;99.90;;;;;;5033088;28;20480;-69
2021/10/08 03:04:48;;;;;;;1.75;1.25;;;11.30;99.90;;;;;;5032529;28;20135;-70
2021/10/08 03:07:14;;;;;;;0.40;0.40;;;11.40;99.90;;;;;;5032770;28;20036;-70
2021/10/08 03:09:40;;;;;;;1.13;0.88;;;11.40;99.90;;;;;;5029423;28;20027;-69
2021/10/08 03:12:05;;;;;;;0.88;0.73;;;11.50;99.90;;;;;;5034143;28;20034;-69
2021/10/08 03:14:31;;;;;;;1.48;1.02;;;11.50;99.90;;;;;;5027291;28;20048;-69
2021/10/08 03:16:56;;;;;;;0.80;0.68;;;11.60;99.90;;;;;;5031065;28;20029;-69
2021/10/08 03:19:22;;;;;;;1.10;1.00;;;11.60;99.90;;;;;;5029387;28;20037;-69
2021/10/08 03:21:47;;;;;;;2.28;1.58;;;11.70;99.90;;;;;;5034422;28;20043;-69
2021/10/08 03:24:13;;;;;;;1.98;1.48;;;11.70;99.90;;;;;;5031681;28;20051;-69
2021/10/08 03:26:38;;;;;;;1.85;1.38;;;11.70;99.90;;;;;;5037676;28;20156;-70
2021/10/08 03:29:04;;;;;;;1.20;1.05;;;11.80;99.90;;;;;;5030234;28;20037;-70
2021/10/08 03:31:30;;;;;;;1.40;1.20;;;11.80;99.90;;;;;;5030575;28;20025;-70
2021/10/08 03:33:55;;;;;;;3.10;1.38;;;11.90;99.90;;;;;;5027769;28;20037;-69
2021/10/08 03:36:33;;;;;;;4.72;2.03;;;11.90;99.90;;;;;;5029947;28;20029;-69
2021/10/08 03:38:58;;;;;;;2.72;0.85;;;11.90;99.90;;;;;;5033568;28;20052;-69
2021/10/08 03:41:25;;;;;;;0.95;0.95;;;11.90;99.90;;;;;;5029688;28;20432;-70
2021/10/08 03:43:54;;;;;;;1.70;1.60;;;11.90;99.90;;;;;;5031934;28;20037;-69
2021/10/08 03:46:20;;;;;;;1.00;1.00;;;11.90;99.90;;;;;;5025177;28;20025;-70
2021/10/08 03:51:30;;;;;;;1.42;1.23;;;12.00;99.90;;;;;;5029513;28;20055;-69
2021/10/08 03:53:56;;;;;;;3.55;2.47;;;12.00;99.90;;;;;;5036666;28;20472;-69
2021/10/08 03:56:23;;;;;;;0.95;0.95;;;12.00;99.90;;;;;;5027917;28;20036;-69
2021/10/08 03:58:48;;;;;;;1.98;1.80;;;12.00;99.90;;;;;;5028997;28;20040;-70
2021/10/08 04:01:14;;;;;;;3.42;2.00;;;12.00;99.90;;;;;;5031721;28;20447;-69
2021/10/08 04:03:40;;;;;;;2.25;1.77;;;12.00;99.90;;;;;;5026133;28;20029;-70
2021/10/08 04:06:05;;;;;;;2.30;1.27;;;12.00;99.90;;;;;;5023975;28;20740;-70
2021/10/08 04:08:31;;;;;;;1.65;1.02;;;12.00;99.90;;;;;;5036425;28;20049;-70
2021/10/08 04:10:56;;;;;;;1.70;1.40;;;12.10;99.90;;;;;;5026178;28;20025;-69
2021/10/08 04:13:22;;;;;;;2.28;1.92;;;12.10;99.90;;;;;;5026186;28;20112;-70
2021/10/08 04:15:47;;;;;;;3.10;1.80;;;12.10;99.90;;;;;;5022835;28;20025;-70
2021/10/08 04:18:13;;;;;;;6.57;2.47;;;12.20;99.90;;;;;;5031678;28;20442;-69
2021/10/08 04:20:40;;;;;;;2.28;2.05;;;12.20;99.90;;;;;;5027775;28;20057;-70
2021/10/08 04:23:05;;;;;;;3.10;1.65;;;12.20;99.90;;;;;;5028544;28;20087;-70
2021/10/08 04:25:31;;;;;;;4.60;4.18;;;12.30;99.90;;;;;;5030009;28;20026;-70
2021/10/08 04:27:56;;;;;;;0.90;0.90;;;12.30;99.90;;;;;;5026262;28;20021;-70
2021/10/08 04:30:27;;;;;;;1.95;1.60;;;12.30;99.90;;;;;;5030246;28;20748;-69
2021/10/08 04:32:52;;;;;;;1.77;1.67;;;12.30;99.90;;;;;;5028003;28;20021;-69
2021/10/08 04:35:18;;;;;;;4.38;2.15;;;12.30;99.90;;;;;;5034969;28;20040;-69
2021/10/08 04:37:43;;;;;;;0.60;0.60;;;12.30;99.90;;;;;;5029676;28;20069;-70
2021/10/08 04:40:09;;;;;;;3.20;1.83;;;12.30;99.90;;;;;;5032823;28;20476;-69
2021/10/08 04:42:35;;;;;;;4.03;2.45;;;12.30;99.90;;;;;;5028868;28;20492;-69
2021/10/08 04:45:01;;;;;;;4.22;2.55;;;12.30;99.90;;;;;;5028561;28;20041;-70
2021/10/08 04:47:26;;;;;;;5.07;1.65;;;12.30;99.90;;;;;;5030189;28;20100;-69
2021/10/08 04:49:52;;;;;;;2.33;2.03;;;12.30;99.90;;;;;;5028599;28;20392;-69
2021/10/08 04:52:17;;;;;;;2.50;1.60;;;12.30;99.90;;;;;;5031227;28;20572;-69
2021/10/08 04:54:43;;;;;;;3.45;3.10;;;12.30;99.90;;;;;;5029231;28;20037;-70
2021/10/08 04:57:09;;;;;;;1.35;1.25;;;12.40;99.90;;;;;;5022472;28;20029;-69
2021/10/08 04:59:34;;;;;;;1.55;1.42;;;12.40;99.90;;;;;;5032521;28;20104;-69
2021/10/08 05:02:00;;;;;;;4.95;2.67;;;12.40;99.90;;;;;;5030557;28;20377;-70
2021/10/08 05:04:26;;;;;;;1.70;1.60;;;12.40;99.90;;;;;;5024381;28;20026;-70
2021/10/08 05:06:52;;;;;;;3.10;2.50;;;12.40;99.90;;;;;;5027052;28;20036;-69
2021/10/08 05:09:18;;;;;;;1.77;1.65;;;12.30;99.90;;;;;;5033975;28;20032;-70
2021/10/08 05:11:43;;;;;;;4.20;2.13;;;12.40;99.90;;;;;;5026891;28;20395;-70
2021/10/08 05:14:10;;;;;;;2.75;1.52;;;12.40;99.90;;;;;;5032018;28;20034;-70
2021/10/08 05:16:42;;;;;;;3.45;1.50;;;12.30;99.90;;;;;;5026315;28;20482;-70
2021/10/08 05:19:07;;;;;;;2.85;2.58;;;12.40;99.90;;;;;;5030341;28;20036;-69
2021/10/08 05:21:33;;;;;;;3.78;2.40;;;12.30;99.90;;;;;;5027429;28;20029;-70
2021/10/08 05:23:59;;;;;;;4.50;1.98;;;12.30;99.90;;;;;;5032642;28;20116;-70
2021/10/08 05:26:25;;;;;;;3.40;2.40;;;12.30;99.90;;;;;;5026329;28;20553;-70
2021/10/08 05:28:50;;;;;;;1.10;1.08;;;12.30;99.90;;;;;;5028612;28;20033;-70
2021/10/08 05:31:16;;;;;;;3.92;2.85;;;12.30;99.90;;;;;;5027318;28;20502;-69
2021/10/08 05:33:42;;;;;;;7.13;3.00;;;12.30;99.90;;;;;;5029270;28;20030;-70
2021/10/08 05:36:07;;;;;;;2.45;1.98;;;12.20;99.90;;;;;;5025402;28;20045;-70
2021/10/08 05:38:33;;;;;;;4.90;2.10;;;12.20;99.90;;;;;;5025543;28;20042;-69
2021/10/08 05:41:00;;;;;;;3.30;2.35;;;12.30;99.90;;;;;;5022267;28;20472;-73
2021/10/08 05:43:46;;;;;;;2.17;2.00;;;12.30;99.90;;;;;;5030010;28;20080;-74
2021/10/08 05:46:12;;;;;;;2.38;2.17;;;12.30;99.90;;;;;;5029986;28;20118;-73
2021/10/08 05:48:37;;;;;;;6.97;3.55;;;12.30;99.90;;;;;;5029142;28;20024;-77
2021/10/08 05:51:02;;;;;;;2.15;2.05;;;12.30;99.90;;;;;;5029853;28;20021;-73
2021/10/08 05:53:28;;;;;;;2.72;2.53;;;12.30;99.90;;;;;;5031099;28;20036;-73
2021/10/08 05:55:53;;;;;;;4.68;2.95;;;12.30;99.90;;;;;;5033761;28;20045;-71
2021/10/08 05:58:19;;;;;;;6.25;3.28;;;12.30;99.90;;;;;;5033466;28;20028;-72
2021/10/08 06:00:44;;;;;;;4.40;3.10;;;12.30;99.90;;;;;;5036478;28;20014;-72
2021/10/08 06:03:10;;;;;;;3.05;2.42;;;12.30;99.90;;;;;;5033184;28;20021;-72
2021/10/08 06:05:43;;;;;;;3.60;1.90;;;12.40;99.90;;;;;;5031858;28;20029;-73
2021/10/08 06:08:09;;;;;;;2.72;2.22;;;12.40;99.90;;;;;;5035269;28;20052;-71
2021/10/08 06:10:35;;;;;;;5.25;3.20;;;12.40;99.90;;;;;;5028714;28;20024;-72
2021/10/08 06:13:01;;;;;;;2.08;1.77;;;12.50;99.90;;;;;;5045623;28;20021;-73
2021/10/08 06:15:26;;;;;;;2.67;1.83;;;12.50;99.90;;;;;;5044189;28;20766;-73
2021/10/08 06:17:52;;;;;;;3.40;2.85;;;12.50;99.90;;;;;;5045655;28;20112;-72
2021/10/08 06:20:17;;;;;;;2.42;2.17;;;12.50;99.90;;;;;;5047846;28;20422;-73
2021/10/08 06:22:45;;;;;;;4.25;3.25;;;12.40;99.90;;;;;;5044101;28;20040;-73
2021/10/08 06:25:11;;;;;;;2.80;1.98;;;12.40;99.90;;;;;;5043659;28;20228;-73
2021/10/08 06:27:38;;;;;;;2.55;1.80;;;12.50;99.90;;;;;;5045337;28;20023;-73
2021/10/08 06:30:05;;;;;;;6.35;2.15;;;12.40;99.90;;;;;;5045455;28;20523;-73
2021/10/08 06:32:31;;;;;;;4.80;2.65;;;12.40;99.90;;;;;;5048141;28;20036;-73
2021/10/08 06:34:56;;;;;;;3.08;1.98;;;12.40;99.90;;;;;;5043253;28;20037;-73
2021/10/08 06:37:22;;;;;;;6.10;3.53;;;12.40;99.90;;;;;;5045516;28;20501;-72
2021/10/08 06:39:47;;;;;;;11.98;4.07;;;12.50;99.90;;;;;;5044587;28;20044;-72
2021/10/08 06:42:13;;;;;;;6.20;2.72;;;12.50;99.90;;;;;;5046464;28;20017;-72
2021/10/08 06:44:38;;;;;;;16.40;3.13;;;12.50;99.90;;;;;;5045586;28;20501;-72
2021/10/08 06:47:04;;;;;;;8.43;3.05;;;12.40;99.90;;;;;;5046418;28;20032;-72
2021/10/08 06:49:29;;;;;;;2.95;2.50;;;12.40;99.90;;;;;;5045613;28;20036;-72
2021/10/08 06:51:55;;;;;;;4.55;3.67;;;12.40;99.90;;;;;;5044674;28;20112;-72
2021/10/08 06:54:21;;;;;;;5.97;2.25;;;12.50;99.90;;;;;;5046657;28;20025;-72
2021/10/08 06:56:46;;;;;;;2.75;2.53;;;12.40;99.90;;;;;;5044874;28;20028;-72
2021/10/08 06:59:12;;;;;;;2.35;2.03;;;12.40;99.90;;;;;;5045462;28;20499;-73
2021/10/08 07:01:37;;;;;;;1.52;1.42;;;12.40;99.90;;;;;;5045067;28;20063;-73
2021/10/08 07:04:03;;;;;;;1.65;1.55;;;12.50;99.90;;;;;;5045694;28;20021;-72
2021/10/08 07:06:29;;;;;;;4.88;2.25;;;12.60;99.90;;;;;;5046996;28;20507;-73
2021/10/08 07:08:56;;;;;;;3.42;2.15;;;12.60;99.90;;;;;;5045558;28;20063;-72
2021/10/08 07:11:21;;;;;;;8.10;2.25;;;12.60;99.90;;;;;;5043202;28;20029;-73
2021/10/08 07:13:49;;;;;;;2.60;2.25;;;12.70;99.90;;;;;;5047608;28;20031;-73
2021/10/08 07:16:18;;;;;;;4.25;2.05;;;12.70;99.90;;;;;;5045718;28;20063;-73
2021/10/08 07:18:49;;;;;;;1.50;1.48;;;12.80;99.90;;;;;;5043327;28;20608;-73
2021/10/08 07:21:15;;;;;;;5.07;3.22;;;12.90;99.90;;;;;;5045886;28;20049;-73
2021/10/08 07:23:45;;;;;;;4.07;2.70;;;13.00;99.90;;;;;;5044575;28;20470;-73
2021/10/08 07:26:11;;;;;;;3.42;2.40;;;13.00;99.90;;;;;;5045324;28;20336;-73
2021/10/08 07:28:38;;;;;;;3.88;3.45;;;13.10;99.90;;;;;;5045611;28;20384;-73
2021/10/08 07:31:04;;;;;;;3.22;2.38;;;13.20;99.90;;;;;;5041265;28;20044;-72
2021/10/08 07:33:30;;;;;;;2.80;2.40;;;13.30;99.90;;;;;;5043282;28;20033;-72
2021/10/08 07:35:55;;;;;;;2.13;1.92;;;13.40;99.90;;;;;;5040246;28;20076;-73
2021/10/08 07:38:21;;;;;;;6.80;2.58;;;13.50;99.90;;;;;;5045042;28;20032;-73
2021/10/08 07:40:46;;;;;;;5.80;5.05;;;13.50;99.90;;;;;;5043556;28;20033;-73
2021/10/08 07:43:12;;;;;;;20.45;2.70;;;13.60;99.90;;;;;;5042160;28;20024;-72
2021/10/08 07:45:37;;;;;;;2.80;2.35;;;13.70;99.90;;;;;;5045440;28;20075;-73
2021/10/08 07:48:03;;;;;;;4.07;2.05;;;13.80;99.90;;;;;;5044385;28;20475;-73
2021/10/08 07:50:28;;;;;;;2.55;2.35;;;13.90;99.90;;;;;;5042680;28;20021;-73
2021/10/08 07:52:54;;;;;;;3.30;2.13;;;14.00;99.90;;;;;;5042058;28;20025;-73
2021/10/08 07:55:20;;;;;;;2.35;2.00;;;14.10;99.90;;;;;;5044800;28;20032;-73
2021/10/08 07:57:45;;;;;;;2.03;1.92;;;14.10;99.90;;;;;;5042610;28;20610;-74
2021/10/08 08:00:13;;;;;;;6.15;2.53;;;14.30;99.90;;;;;;5044580;28;20140;-73
2021/10/08 08:02:40;;;;;;;3.65;2.50;;;14.30;99.90;;;;;;5041971;28;20025;-73
2021/10/08 08:05:06;;;;;;;4.03;2.53;;;14.30;99.90;;;;;;5042438;28;20036;-72
2021/10/08 08:07:31;;;;;;;3.85;2.33;;;14.30;99.90;;;;;;5044917;28;20025;-73
2021/10/08 08:09:57;;;;;;;5.75;2.38;;;14.40;99.90;;;;;;5042221;28;20029;-73
2021/10/08 08:12:22;;;;;;;2.47;1.60;;;14.30;99.90;;;;;;5045483;28;20048;-74
2021/10/08 08:14:48;;;;;;;2.22;1.73;;;14.20;99.90;;;;;;5044740;28;20032;-74
2021/10/08 08:17:13;;;;;;;7.88;3.22;;;14.20;99.90;;;;;;5041780;28;20624;-74
2021/10/08 08:19:39;;;;;;;2.65;2.03;;;14.20;99.90;;;;;;5044174;28;20049;-74
2021/10/08 08:22:04;;;;;;;5.70;3.58;;;14.20;99.90;;;;;;5044192;28;20128;-74
2021/10/08 08:24:30;;;;;;;2.33;1.83;;;14.20;99.90;;;;;;5044504;28;20048;-74
2021/10/08 08:26:56;;;;;;;10.13;3.67;;;14.20;99.90;;;;;;5043475;28;20476;-74
2021/10/08 08:29:21;;;;;;;3.63;2.10;;;14.20;99.90;;;;;;5045428;28;20028;-74
2021/10/08 08:31:47;;;;;;;1.90;1.75;;;14.20;99.90;;;;;;5042018;28;20030;-74
2021/10/08 08:34:12;;;;;;;4.22;2.13;;;14.30;99.90;;;;;;5045018;28;20033;-74
2021/10/08 08:36:38;;;;;;;6.97;2.85;;;14.30;99.90;;;;;;5042426;28;20036;-74
2021/10/08 08:39:08;;;;;;;2.75;1.83;;;14.40;99.90;;;;;;5044354;28;20114;-74
2021/10/08 08:41:34;;;;;;;2.63;2.10;;;14.60;99.90;;;;;;5042678;28;20034;-74
2021/10/08 08:44:01;;;;;;;2.78;2.50;;;14.70;99.90;;;;;;5043430;28;20114;-75
2021/10/08 08:46:27;;;;;;;2.00;1.85;;;14.80;99.90;;;;;;5043155;28;20629;-75
2021/10/08 08:48:53;;;;;;;2.08;1.98;;;15.00;99.90;;;;;;5043861;28;20115;-75
2021/10/08 08:51:19;;;;;;;2.67;2.13;;;15.10;99.90;;;;;;5042080;28;20487;-75
2021/10/08 08:53:44;;;;;;;2.53;2.05;;;15.20;99.90;;;;;;5043100;28;20040;-74
2021/10/08 08:56:10;;;;;;;3.85;2.42;;;15.30;99.90;;;;;;5039486;28;20021;-74
2021/10/08 08:58:35;;;;;;;2.10;1.70;;;15.30;99.90;;;;;;5034987;28;20040;-74
2021/10/08 09:01:02;;;;;;;3.55;2.35;;;15.40;99.90;;;;;;5043833;28;20040;-73
2021/10/08 09:03:28;;;;;;;2.47;1.90;;;15.50;99.90;;;;;;5034041;28;20061;-71
2021/10/08 09:05:54;;;;;;;1.02;0.98;;;15.50;99.90;;;;;;5042433;28;20107;-73
2021/10/08 09:08:29;;;;;;;5.07;2.28;;;15.60;99.90;;;;;;5029638;28;20024;-70
2021/10/08 09:10:58;;;;;;;1.80;1.60;;;15.60;99.90;;;;;;5028469;28;20025;-73
2021/10/08 09:13:25;;;;;;;3.58;1.02;;;15.70;99.90;;;;;;5035217;28;20047;-69
2021/10/08 09:15:53;;;;;;;2.30;2.10;;;15.80;99.90;;;;;;5022230;28;20033;-70
2021/10/08 09:18:22;;;;;;;5.07;2.25;;;16.00;99.90;;;;;;5034370;28;20123;-70
2021/10/08 09:21:12;;;;;;;25.92;1.73;;;16.10;99.10;;;;;;5035360;28;20099;-70
2021/10/08 09:23:47;;;;;;;1.52;1.27;;;16.20;98.70;;;;;;5029663;28;20049;-70
2021/10/08 09:26:18;;;;;;;2.97;1.58;;;16.30;97.10;;;;;;5035118;28;20035;-69
2021/10/08 09:28:55;;;;;;;1.52;1.42;;;16.30;96.70;;;;;;5034112;28;20028;-70
2021/10/08 09:31:37;;;;;;;2.40;1.95;;;16.40;95.70;;;;;;5035689;28;20067;-69
2021/10/08 09:34:17;;;;;;;;;;;16.30;92.90;;;;;;5029761;28;20022;-69
2021/10/08 09:36:47;;;;;;;1.83;1.73;;;16.40;92.60;;;;;;5027353;28;19909;-69
2021/10/08 09:39:45;;;;;;;1.63;1.52;;;16.40;92.20;;;;;;5034188;28;20040;-70
2021/10/08 09:42:12;;;;;;;1.85;1.52;;;16.50;92.10;;;;;;5028428;28;20049;-70
2021/10/08 09:44:50;;;;;;;0.60;0.57;;;16.60;91.40;;;;;;5033634;28;20033;-70
2021/10/08 09:47:20;;;;;;;2.22;2.03;;;16.60;91.10;;;;;;5031640;28;20441;-70
2021/10/08 09:49:51;;;;;;;4.70;1.23;;;16.70;88.00;;;;;;5030044;28;20033;-70
2021/10/08 09:52:27;;;;;;;0.22;0.22;;;16.70;85.20;;;;;;5026406;28;20446;-70
2021/10/08 09:55:01;;;;;;;3.03;0.85;;;16.70;87.90;;;;;;5030828;28;20500;-69
2021/10/08 09:57:27;;;;;;;0.47;0.47;;;16.70;84.40;;;;;;5027035;28;20087;-69
2021/10/08 09:59:54;;;;;;;4.38;0.63;;;16.70;84.80;;;;;;5033081;28;20124;-69
2021/10/08 10:02:21;;;;;;;5.68;1.05;;;16.80;84.40;;;;;;5036575;28;20024;-69
2021/10/08 10:04:59;;;;;;;3.08;0.98;;;16.80;87.30;;;;;;5028856;28;20438;-69
2021/10/08 10:07:25;;;;;;;4.70;1.23;;;16.80;84.50;;;;;;5033468;28;20585;-68
2021/10/08 10:09:51;;;;;;;0.52;0.52;;;16.80;85.50;;;;;;5031231;28;20108;-69
2021/10/08 10:12:19;;;;;;;1.27;1.20;;;16.90;84.90;;;;;;5031089;28;20100;-70
2021/10/08 10:14:47;;;;;;;2.20;1.90;;;16.90;84.20;;;;;;5026258;28;20550;-74
2021/10/08 10:17:14;;;;;;;1.15;1.05;;;17.00;81.70;;;;;;5030282;28;20083;-80
2021/10/08 10:19:45;;;;;;;1.40;0.95;;;17.10;82.30;;;;;;5036955;28;20069;-74
2021/10/08 10:22:15;;;;;;;;;;;17.10;80.70;;;;;;5025321;28;20025;-70
2021/10/08 10:24:47;;;;;;;2.05;1.85;;;17.20;79.40;;;;;;5033582;28;19924;-69
2021/10/08 10:27:15;;;;;;;1.80;1.35;;;17.30;77.00;;;;;;5034417;28;20018;-69
2021/10/08 10:29:43;;;;;;;2.70;1.02;;;17.30;76.30;;;;;;5030107;28;20060;-69
2021/10/08 10:32:09;;;;;;;11.38;1.35;;;17.40;76.50;;;;;;5034938;28;20029;-69
2021/10/08 10:34:36;;;;;;;0.68;0.68;;;17.50;74.60;;;;;;5037251;28;20033;-69
2021/10/08 10:37:02;;;;;;;3.88;0.95;;;17.50;74.00;;;;;;5031226;28;20044;-70
2021/10/08 10:39:27;;;;;;;0.35;0.35;;;17.60;74.70;;;;;;5032884;28;20029;-72
2021/10/08 10:42:02;;;;;;;9.55;1.95;;;17.60;74.50;;;;;;5033373;28;20564;-71
2021/10/08 10:44:33;;;;;;;7.43;1.75;;;17.60;74.20;;;;;;5037497;28;20605;-69
2021/10/08 10:47:12;;;;;;;0.85;0.85;;;17.70;71.50;;;;;;5038013;28;20041;-69
2021/10/08 10:49:45;;;;;;;0.65;0.65;;;17.80;72.90;;;;;;5035851;28;20031;-70
2021/10/08 10:52:13;;;;;;;5.13;1.95;;;17.90;70.90;;;;;;5045136;28;20056;-69
2021/10/08 10:54:39;;;;;;;1.25;0.80;;;18.00;70.90;;;;;;5039546;28;20021;-69
2021/10/08 10:57:32;;;;;;;1.40;0.88;;;18.20;70.50;;;;;;5036715;28;20363;-69
2021/10/08 11:00:24;;;;;;;2.00;1.50;;;18.40;69.80;;;;;;5024851;28;20117;-71
2021/10/08 11:03:14;;;;;;;1.60;1.40;;;18.60;68.50;;;;;;5037606;28;20025;-72
2021/10/08 11:06:14;;;;;;;0.63;0.63;;;18.80;68.10;;;;;;5039710;28;20038;-71
2021/10/08 11:09:15;;;;;;;1.38;0.75;;;19.00;68.00;;;;;;5028086;28;20464;-71
2021/10/08 11:11:40;;;;;;;1.88;1.45;;;19.20;70.20;;;;;;5035698;28;20385;-70
2021/10/08 11:14:21;;;;;;;5.80;1.95;;;19.30;67.90;;;;;;5028795;28;20030;-71
2021/10/08 11:16:49;;;;;;;1.52;0.82;;;19.50;68.50;;;;;;5032932;28;20025;-71
2021/10/08 11:19:52;;;;;;;4.38;1.25;;;19.70;68.50;;;;;;5033768;28;20049;-71
2021/10/08 11:22:38;;;;;;;1.40;1.27;;;19.80;66.60;;;;;;5011368;28;20034;-72
2021/10/08 11:25:05;;;;;;;1.38;0.90;;;20.00;67.90;;;;;;5038333;28;20577;-72
2021/10/08 11:27:30;;;;;;;1.35;1.08;;;20.20;67.60;;;;;;5047423;28;20036;-72
2021/10/08 11:30:02;;;;;;;2.42;1.50;;;20.50;64.10;;;;;;5029547;28;20239;-71
2021/10/08 11:32:33;;;;;;;2.28;1.30;;;20.70;62.90;;;;;;5038327;28;20463;-69
2021/10/08 11:34:58;;;;;;;1.15;1.15;;;21.00;63.00;;;;;;5049660;28;20029;-72
2021/10/08 11:37:24;;;;;;;1.33;1.23;;;21.30;60.20;;;;;;5046434;28;20090;-71
2021/10/08 11:39:50;;;;;;;1.10;1.00;;;21.50;58.60;;;;;;5045484;28;20033;-71
2021/10/08 11:42:18;;;;;;;1.42;0.90;;;21.60;59.20;;;;;;5043000;28;20056;-72
2021/10/08 11:50:45;;;;;;;2.20;1.48;;;22.10;57.00;;;;;;5049944;28;20025;-71
2021/10/08 11:52:41;;;;;;;;;;;22.40;57.30;;;;;;5032364;28;20507;-72
2021/10/08 11:55:28;;;;;;;5.07;1.55;;;22.70;56.60;;;;;;5040504;28;19917;-72
2021/10/08 11:57:59;;;;;;;2.10;1.45;;;22.90;56.20;;;;;;5030398;28;20031;-71
2021/10/08 12:00:33;;;;;;;37.10;2.42;;;22.90;53.50;;;;;;5047495;28;20091;-73
2021/10/08 12:03:24;;;;;;;2.70;1.65;;;22.80;53.40;;;;;;5032956;28;20033;-73
2021/10/08 12:05:52;;;;;;;2.50;1.33;;;22.60;54.30;;;;;;5029188;28;20040;-73
2021/10/08 12:08:22;;;;;;;1.52;0.98;;;22.30;55.10;;;;;;5038381;28;20045;-74
2021/10/08 12:10:56;;;;;;;11.38;1.35;;;22.20;55.50;;;;;;5044519;28;20495;-73
2021/10/08 12:13:34;;;;;;;1.38;1.25;;;22.00;55.80;;;;;;5057397;28;20095;-73
2021/10/08 12:15:59;;;;;;;0.95;0.88;;;21.70;57.90;;;;;;5049350;28;20384;-74
2021/10/08 12:18:25;;;;;;;0.90;0.90;;;21.40;59.00;;;;;;5047209;28;20135;-73
2021/10/08 12:21:13;;;;;;;1.77;1.13;;;21.30;56.80;;;;;;5032416;28;20053;-73
2021/10/08 12:23:39;;;;;;;1.35;1.10;;;21.20;59.60;;;;;;5029949;28;20021;-73
2021/10/08 12:26:05;;;;;;;2.15;1.38;;;21.10;59.70;;;;;;5044024;28;20239;-74
2021/10/08 12:28:31;;;;;;;1.77;1.67;;;21.10;58.20;;;;;;5048382;28;20036;-73
2021/10/08 12:31:01;;;;;;;0.52;0.52;;;21.00;57.70;;;;;;5041254;28;20079;-73
2021/10/08 12:33:33;;;;;;;1.42;0.80;;;20.90;60.40;;;;;;5038604;28;20022;-73
2021/10/08 12:36:17;;;;;;;0.73;0.73;;;20.80;58.80;;;;;;5031786;28;20017;-73
2021/10/08 12:39:09;;;;;;;1.10;1.00;;;20.80;59.50;;;;;;5034116;28;20049;-73
2021/10/08 12:41:55;;;;;;;1.52;1.40;;;21.00;60.10;;;;;;5039401;28;20021;-73
2021/10/08 12:44:26;;;;;;;0.93;0.93;;;21.10;60.00;;;;;;5038783;28;20022;-74
2021/10/08 12:47:14;;;;;;;;;;;21.20;59.10;;;;;;5038675;28;20029;-74
2021/10/08 12:50:02;;;;;;;3.35;1.63;;;21.30;58.30;;;;;;5036007;28;19916;-73
2021/10/08 12:52:49;;;;;;;5.60;1.40;;;21.50;57.00;;;;;;5039012;28;20063;-73
2021/10/08 12:55:17;;;;;;;1.17;1.08;;;21.70;56.40;;;;;;5031741;28;20036;-74
2021/10/08 12:58:07;;;;;;;6.72;1.92;;;22.00;56.20;;;;;;5041304;28;20032;-73
2021/10/08 13:00:42;;;;;;;1.60;1.30;;;22.30;55.60;;;;;;5039334;28;20216;-73
2021/10/08 13:03:26;;;;;;;1.70;1.00;;;22.60;54.50;;;;;;5028659;28;20041;-73